createdAt,value
2022-09-28T06:22:10.119Z,1.03
2022-09-28T06:37:29.067Z,1.00
2022-09-28T06:52:35.433Z,1.02
2022-09-28T07:07:51.063Z,0.98
2022-09-28T07:23:19.346Z,0.95
2022-09-28T07:38:44.000Z,0.90
2022-09-28T07:53:49.100Z,0.85
2022-09-28T08:09:12.362Z,0.80
2022-09-28T08:24:55.412Z,0.70
2022-09-28T08:40:00.048Z,0.70
2022-09-28T08:55:33.686Z,0.60
2022-09-28T09:10:50.590Z,0.60
2022-09-28T09:26:04.728Z,0.97
2022-09-28T09:41:20.107Z,5.07
2022-09-28T09:56:49.022Z,6.75
2022-09-28T10:12:21.271Z,7.28
2022-09-28T10:27:30.688Z,5.90
2022-09-28T10:42:36.186Z,6.30
2022-09-28T10:57:42.531Z,4.78
2022-09-28T11:12:50.571Z,4.28
2022-09-28T11:28:01.376Z,4.10
2022-09-28T11:43:16.943Z,3.67
2022-09-28T11:58:29.086Z,3.28
2022-09-28T12:13:39.894Z,3.30
2022-09-28T12:28:49.808Z,2.65
2022-09-28T12:44:13.170Z,2.80
2022-09-28T12:59:26.632Z,2.17
2022-09-28T13:15:08.715Z,2.33
2022-09-28T13:30:17.195Z,2.30
2022-09-28T13:45:51.537Z,1.85
2022-09-28T14:01:03.167Z,1.98
2022-09-28T14:16:24.718Z,1.90
2022-09-28T14:31:30.407Z,1.80
2022-09-28T14:46:37.939Z,3.08
2022-09-28T15:01:52.006Z,3.72
2022-09-28T15:16:58.332Z,2.45
2022-09-28T15:32:04.054Z,1.90
2022-09-28T15:47:15.061Z,1.73
2022-09-28T16:02:22.582Z,1.55
2022-09-28T16:17:32.378Z,0.95
2022-09-28T16:32:41.769Z,1.00
2022-09-28T16:47:47.364Z,1.20
2022-09-28T17:02:52.668Z,0.93
2022-09-28T17:17:57.240Z,1.13
2022-09-28T17:33:01.750Z,1.00
2022-09-28T17:48:06.360Z,0.80
2022-09-28T18:03:14.775Z,0.90
2022-09-28T18:18:19.348Z,1.08
